Fresno, CA

9:28 AM PDT on April 18, 2015 (GMT -0700)
Sierra Sky Park | | Change Station
CLOSE
Current Station
Personal Weather Station
Location: Fresno, CA
Elevation: 341 ft
Nearby Weather Stations

Elev 341 ft 36.84 °N, 119.87 °W | Updated 15 minutes ago

Scattered Clouds
Scattered Clouds
76.1 °F
Feels Like 77 °F
N
4.7
Wind Variable Wind from ENE

Today
High -- | Low -- °F
--% Chance of Precip.
Yesterday
High -- | Low -- °F
Precip. -- in
6:21 AM 7:36 PM
Waning Crescent, 0% visible
Pressure 30.02 in
Visibility 10.0 miles
Clouds Scattered Clouds 20000 ft
Heat Index 77 °F
Dew Point 43 °F
Humidity 31%
Rainfall 0.06 in
Snow Depth Not available.
UV 2 out of 12
Pollen 9.20 out of 12
Air Quality Not available.
Flu Activity Sporadic
METAR KFAT 181553Z 08005KT 10SM SCT200 19/02 A3003 RMK AO2 SLP164 T01940017

More Conditions Fewer Conditions

Pressure 30.02 in
Visibility 10.0 miles
Clouds Scattered Clouds 20000 ft
Heat Index 77 °F
Dew Point 43 °F
Humidity 31%
Rainfall 0.06 in
Snow Depth Not available.
UV 2 out of 12
Pollen 9.20 out of 12
Air Quality Not available.
Flu Activity Sporadic
METAR KFAT 181553Z 08005KT 10SM SCT200 19/02 A3003 RMK AO2 SLP164 T01940017

More Conditions Fewer Conditions

10-Day Weather Forecast

Almanac

Astronomy

Apr. 18, 2015 Rise Set
Actual Time
Civil Twilight
Nautical Twilight
Astronomical Twilight
Moon
Length of Visible Light
Length of Day
Tomorrow will be .
, % of the Moon is Illuminated

Today's Extremes

State Highs State Lows

Community

WunderPhotos

Upload Photos

1,814,448 photos uploaded!

WunderBlogs® & News

Nearby

Air Quality

  Air Quality AQ Index Pollutant
Not available.

Snow Depth

Station Depth Elevation

Earthquake Activity

City Distance Mag. Time & Date
Minimum magnitude displayed is 2.5.

Coastal Water Temperatures

Place Temperature

Stations

Nearby Weather Stations

Station Location Temp. Windchill Dew Point Humidity Wind Precip. Elev Updated Type